Westford, VT (05494)

5:11 AM EST en Enero 18, 2018 (GMT -0500)
Coyote Ridge | | Change Station

Alt 472 ft 44.63 °N, 73.01 °W | Updated 23 seconds ago

Nublado
Nublado
16.7 ° F
Sensación térmica 5 ° F
N
9.2
Viento Variable Viento desde SSO
Gusts 9.8 mph

Hoy
Alta -- | Baja -- ° F
--% Posibilidad de precipitaciones
Ayer
Alta -- | Baja -- ° F
Precip. -- pul
Presión 30.02 pul
Visibilidad 10.0 Millas
Nubes Nublado 3100 ft
Vientos helados 5 ° F
Punto de rocío 5 ° F
Humedad 60%
Precipitaciones 0.00 pul
Espesor de la nieve No disponible.
7:23 AM 4:41 PM
Luna nueva, 2% visible
METAR KBTV 180954Z 19011KT 10SM OVC031 M09/M13 A3000 RMK AO2 SLP166 T10891128
Presión 30.02 pul
Visibilidad 10.0 Millas
Nubes Nublado 3100 ft
Vientos helados 5 ° F
Punto de rocío 5 ° F
Humedad 60%
Precipitaciones 0.00 pul
Espesor de la nieve No disponible.
7:23 AM 4:41 PM
Luna nueva, 2% visible
METAR KBTV 180954Z 19011KT 10SM OVC031 M09/M13 A3000 RMK AO2 SLP166 T10891128

Get Severe Weather Alerts

Thanks for signing up!

Be on the lookout for a verification email in your inbox.

You'll start receiving the daily forecast at 6 AM.

×

10-Day Weather Forecast

Almanac

Astronomía

Jan. 18, 2018 Salida Puesta
Hora real
Crepúsculo civil
Crepúsculo náutico
Crepúsculo astronómico
Luna
Horas de luz
Horas de luz
Tomorrow will be .
, % of the Moon is Illuminated

Extremos de hoy

Máximos del estado Bajos del estado

Community

WunderPhotos

Category 6

Welcome to Category 6. This is the collective home for Weather Underground's featured writeups by Dr. Jeff Masters (right), Bob Henson (left), Chris Burt, and other regular contributors.

Nearby

Calidad del aire

  Calidad del aire Índice AQ Contaminante
Not available.

Grosos de nieve

Estación Profundido Altura

Actividad de terremotos

Ciudad Distance Mag. Tiempo y dato
Magnitud mínima muestra es 2,5.

Temperaturas de aguas costeras

Lugar Temperatura

Stations

Estaciones meteorológicas cercanas

Ubicación de la estación Temp. Vientos helados Punto de rocío Humedad Viento Precip. Alt Actualizado Tipo
                   

Watches & Warnings

There are currently no watches in effect.